sensor_id;sensor_type;location;lat;lon;timestamp;P1;P2;P0
42510;PMS7003;28141;51.120;17.114;2022-07-29T00:01:57;7;1;0
42510;PMS7003;28141;51.120;17.114;2022-07-29T00:05:01;9;2;1
42510;PMS7003;28141;51.120;17.114;2022-07-29T00:08:04;8;1;0
42510;PMS7003;28141;51.120;17.114;2022-07-29T00:11:34;8;1;0
42510;PMS7003;28141;51.120;17.114;2022-07-29T00:14:38;8;1;0
42510;PMS7003;28141;51.120;17.114;2022-07-29T00:17:41;8;1;0
42510;PMS7003;28141;51.120;17.114;2022-07-29T00:20:44;10;2;2
42510;PMS7003;28141;51.120;17.114;2022-07-29T00:23:48;7;1;0
42510;PMS7003;28141;51.120;17.114;2022-07-29T00:26:51;8;1;0
42510;PMS7003;28141;51.120;17.114;2022-07-29T00:29:55;7;1;1
42510;PMS7003;28141;51.120;17.114;2022-07-29T00:32:58;7;1;1
42510;PMS7003;28141;51.120;17.114;2022-07-29T00:36:01;8;1;0
42510;PMS7003;28141;51.120;17.114;2022-07-29T00:39:05;8;1;0
42510;PMS7003;28141;51.120;17.114;2022-07-29T00:42:08;7;1;0
42510;PMS7003;28141;51.120;17.114;2022-07-29T00:45:41;8;1;1
42510;PMS7003;28141;51.120;17.114;2022-07-29T00:48:44;8;1;1
42510;PMS7003;28141;51.120;17.114;2022-07-29T00:51:48;9;2;1
42510;PMS7003;28141;51.120;17.114;2022-07-29T00:54:52;8;1;1
42510;PMS7003;28141;51.120;17.114;2022-07-29T00:57:56;8;1;1
42510;PMS7003;28141;51.120;17.114;2022-07-29T01:01:01;8;1;1
42510;PMS7003;28141;51.120;17.114;2022-07-29T01:04:05;8;1;0
42510;PMS7003;28141;51.120;17.114;2022-07-29T01:07:09;8;2;0
42510;PMS7003;28141;51.120;17.114;2022-07-29T01:10:13;8;1;1
42510;PMS7003;28141;51.120;17.114;2022-07-29T01:13:18;7;1;1
42510;PMS7003;28141;51.120;17.114;2022-07-29T01:16:51;8;1;1
42510;PMS7003;28141;51.120;17.114;2022-07-29T01:20:10;9;2;1
42510;PMS7003;28141;51.120;17.114;2022-07-29T01:30:17;8;1;1
42510;PMS7003;28141;51.120;17.114;2022-07-29T01:33:21;8;1;1
42510;PMS7003;28141;51.120;17.114;2022-07-29T01:39:57;8;2;0
42510;PMS7003;28141;51.120;17.114;2022-07-29T01:46:44;7;1;0
42510;PMS7003;28141;51.120;17.114;2022-07-29T01:49:54;8;1;0
42510;PMS7003;28141;51.120;17.114;2022-07-29T01:53:00;8;1;1
42510;PMS7003;28141;51.120;17.114;2022-07-29T01:56:07;8;1;1
42510;PMS7003;28141;51.120;17.114;2022-07-29T01:59:13;9;1;0
42510;PMS7003;28141;51.120;17.114;2022-07-29T02:02:18;9;2;1
42510;PMS7003;28141;51.120;17.114;2022-07-29T02:05:24;8;1;0
42510;PMS7003;28141;51.120;17.114;2022-07-29T02:08:57;8;2;1
42510;PMS7003;28141;51.120;17.114;2022-07-29T02:12:02;9;2;1
42510;PMS7003;28141;51.120;17.114;2022-07-29T02:15:09;8;1;1
42510;PMS7003;28141;51.120;17.114;2022-07-29T02:18:17;8;2;1
42510;PMS7003;28141;51.120;17.114;2022-07-29T02:21:24;8;2;1
42510;PMS7003;28141;51.120;17.114;2022-07-29T02:24:30;8;1;0
42510;PMS7003;28141;51.120;17.114;2022-07-29T02:27:34;8;1;0
42510;PMS7003;28141;51.120;17.114;2022-07-29T02:30:39;8;1;1
42510;PMS7003;28141;51.120;17.114;2022-07-29T02:34:11;8;1;0
42510;PMS7003;28141;51.120;17.114;2022-07-29T02:37:15;8;2;1
42510;PMS7003;28141;51.120;17.114;2022-07-29T02:40:21;11;2;1
42510;PMS7003;28141;51.120;17.114;2022-07-29T02:43:25;8;1;1
42510;PMS7003;28141;51.120;17.114;2022-07-29T02:46:30;8;1;1
42510;PMS7003;28141;51.120;17.114;2022-07-29T02:52:59;8;1;1
42510;PMS7003;28141;51.120;17.114;2022-07-29T02:56:37;8;2;1
42510;PMS7003;28141;51.120;17.114;2022-07-29T02:59:43;9;2;1
42510;PMS7003;28141;51.120;17.114;2022-07-29T03:02:52;8;2;1
42510;PMS7003;28141;51.120;17.114;2022-07-29T03:05:58;9;3;2
42510;PMS7003;28141;51.120;17.114;2022-07-29T03:09:04;10;2;2
42510;PMS7003;28141;51.120;17.114;2022-07-29T03:12:10;11;3;2
42510;PMS7003;28141;51.120;17.114;2022-07-29T03:15:15;8;2;1
42510;PMS7003;28141;51.120;17.114;2022-07-29T03:18:19;10;3;2
42510;PMS7003;28141;51.120;17.114;2022-07-29T03:21:52;8;2;1
42510;PMS7003;28141;51.120;17.114;2022-07-29T03:25:03;11;3;1
42510;PMS7003;28141;51.120;17.114;2022-07-29T03:28:12;10;3;2
42510;PMS7003;28141;51.120;17.114;2022-07-29T03:31:15;9;2;2
42510;PMS7003;28141;51.120;17.114;2022-07-29T03:34:19;10;4;2
42510;PMS7003;28141;51.120;17.114;2022-07-29T03:37:23;10;3;2
42510;PMS7003;28141;51.120;17.114;2022-07-29T03:40:36;9;2;2
42510;PMS7003;28141;51.120;17.114;2022-07-29T03:44:07;9;3;2
42510;PMS7003;28141;51.120;17.114;2022-07-29T03:47:12;10;3;3
42510;PMS7003;28141;51.120;17.114;2022-07-29T03:50:17;11;4;2
42510;PMS7003;28141;51.120;17.114;2022-07-29T03:53:23;10;4;3
42510;PMS7003;28141;51.120;17.114;2022-07-29T03:56:27;11;4;2
42510;PMS7003;28141;51.120;17.114;2022-07-29T03:59:32;12;4;2
42510;PMS7003;28141;51.120;17.114;2022-07-29T04:02:36;10;3;2
42510;PMS7003;28141;51.120;17.114;2022-07-29T04:05:42;11;5;3
42510;PMS7003;28141;51.120;17.114;2022-07-29T04:08:45;11;3;2
42510;PMS7003;28141;51.120;17.114;2022-07-29T04:12:17;10;4;2
42510;PMS7003;28141;51.120;17.114;2022-07-29T04:15:20;10;3;2
42510;PMS7003;28141;51.120;17.114;2022-07-29T04:18:24;11;4;3
42510;PMS7003;28141;51.120;17.114;2022-07-29T04:21:27;12;4;3
42510;PMS7003;28141;51.120;17.114;2022-07-29T04:24:31;10;3;2
42510;PMS7003;28141;51.120;17.114;2022-07-29T04:27:34;10;3;2
42510;PMS7003;28141;51.120;17.114;2022-07-29T04:30:43;11;5;3
42510;PMS7003;28141;51.120;17.114;2022-07-29T04:33:47;10;4;3
42510;PMS7003;28141;51.120;17.114;2022-07-29T04:36:50;11;3;3
42510;PMS7003;28141;51.120;17.114;2022-07-29T04:39:54;11;4;3
42510;PMS7003;28141;51.120;17.114;2022-07-29T04:43:25;12;5;3
42510;PMS7003;28141;51.120;17.114;2022-07-29T04:46:29;11;4;2
42510;PMS7003;28141;51.120;17.114;2022-07-29T04:49:32;13;5;3
42510;PMS7003;28141;51.120;17.114;2022-07-29T04:52:36;11;4;2
42510;PMS7003;28141;51.120;17.114;2022-07-29T04:55:39;11;5;3
42510;PMS7003;28141;51.120;17.114;2022-07-29T04:58:43;10;4;2
42510;PMS7003;28141;51.120;17.114;2022-07-29T05:01:46;10;4;2
42510;PMS7003;28141;51.120;17.114;2022-07-29T05:04:50;12;4;3
42510;PMS7003;28141;51.120;17.114;2022-07-29T05:07:53;10;4;3
42510;PMS7003;28141;51.120;17.114;2022-07-29T05:10:57;11;3;2
42510;PMS7003;28141;51.120;17.114;2022-07-29T05:14:01;10;3;2
42510;PMS7003;28141;51.120;17.114;2022-07-29T05:17:04;10;3;3
42510;PMS7003;28141;51.120;17.114;2022-07-29T05:20:34;10;3;2
42510;PMS7003;28141;51.120;17.114;2022-07-29T05:23:38;11;3;3
42510;PMS7003;28141;51.120;17.114;2022-07-29T05:26:41;10;3;2
42510;PMS7003;28141;51.120;17.114;2022-07-29T05:29:45;11;5;3
42510;PMS7003;28141;51.120;17.114;2022-07-29T05:32:49;11;4;3
42510;PMS7003;28141;51.120;17.114;2022-07-29T05:35:52;9;3;2
42510;PMS7003;28141;51.120;17.114;2022-07-29T05:38:55;10;3;2
42510;PMS7003;28141;51.120;17.114;2022-07-29T05:42:00;10;4;2
42510;PMS7003;28141;51.120;17.114;2022-07-29T05:45:03;10;3;2
42510;PMS7003;28141;51.120;17.114;2022-07-29T05:48:07;10;4;2
42510;PMS7003;28141;51.120;17.114;2022-07-29T05:51:11;10;4;2
42510;PMS7003;28141;51.120;17.114;2022-07-29T05:54:43;11;5;3
42510;PMS7003;28141;51.120;17.114;2022-07-29T05:57:46;9;3;2
42510;PMS7003;28141;51.120;17.114;2022-07-29T06:00:50;9;3;1
42510;PMS7003;28141;51.120;17.114;2022-07-29T06:03:53;10;3;2
42510;PMS7003;28141;51.120;17.114;2022-07-29T06:06:56;10;4;3
42510;PMS7003;28141;51.120;17.114;2022-07-29T06:10:00;10;4;3
42510;PMS7003;28141;51.120;17.114;2022-07-29T06:13:03;11;3;2
42510;PMS7003;28141;51.120;17.114;2022-07-29T06:16:07;10;3;2
42510;PMS7003;28141;51.120;17.114;2022-07-29T06:19:11;11;4;3
42510;PMS7003;28141;51.120;17.114;2022-07-29T06:22:17;12;4;2
42510;PMS7003;28141;51.120;17.114;2022-07-29T06:25:21;9;3;2
42510;PMS7003;28141;51.120;17.114;2022-07-29T06:28:50;10;4;2
42510;PMS7003;28141;51.120;17.114;2022-07-29T06:31:54;11;4;3
42510;PMS7003;28141;51.120;17.114;2022-07-29T06:34:57;11;4;2
42510;PMS7003;28141;51.120;17.114;2022-07-29T06:38:03;10;4;3
42510;PMS7003;28141;51.120;17.114;2022-07-29T06:41:07;11;4;2
42510;PMS7003;28141;51.120;17.114;2022-07-29T06:44:18;10;3;2
42510;PMS7003;28141;51.120;17.114;2022-07-29T06:47:21;9;3;2
42510;PMS7003;28141;51.120;17.114;2022-07-29T06:50:25;10;3;2
42510;PMS7003;28141;51.120;17.114;2022-07-29T06:53:31;10;3;2
42510;PMS7003;28141;51.120;17.114;2022-07-29T06:57:05;9;3;2
42510;PMS7003;28141;51.120;17.114;2022-07-29T07:00:09;12;3;2
42510;PMS7003;28141;51.120;17.114;2022-07-29T07:03:13;10;2;2
42510;PMS7003;28141;51.120;17.114;2022-07-29T07:06:18;10;2;2
42510;PMS7003;28141;51.120;17.114;2022-07-29T07:09:21;9;2;2
42510;PMS7003;28141;51.120;17.114;2022-07-29T07:12:25;12;2;1
42510;PMS7003;28141;51.120;17.114;2022-07-29T07:15:28;8;2;2
42510;PMS7003;28141;51.120;17.114;2022-07-29T07:18:32;9;2;2
42510;PMS7003;28141;51.120;17.114;2022-07-29T07:21:35;10;3;2
42510;PMS7003;28141;51.120;17.114;2022-07-29T07:24:39;9;2;1
42510;PMS7003;28141;51.120;17.114;2022-07-29T07:27:43;9;2;2
42510;PMS7003;28141;51.120;17.114;2022-07-29T07:30:47;9;2;1
42510;PMS7003;28141;51.120;17.114;2022-07-29T07:34:17;9;3;2
42510;PMS7003;28141;51.120;17.114;2022-07-29T07:37:20;9;3;1
42510;PMS7003;28141;51.120;17.114;2022-07-29T07:40:24;9;2;2
42510;PMS7003;28141;51.120;17.114;2022-07-29T07:43:28;10;2;1
42510;PMS7003;28141;51.120;17.114;2022-07-29T07:46:31;9;2;2
42510;PMS7003;28141;51.120;17.114;2022-07-29T07:49:34;9;3;2
42510;PMS7003;28141;51.120;17.114;2022-07-29T07:55:52;9;2;1
42510;PMS7003;28141;51.120;17.114;2022-07-29T07:58:55;10;3;2
42510;PMS7003;28141;51.120;17.114;2022-07-29T08:01:59;9;2;2
42510;PMS7003;28141;51.120;17.114;2022-07-29T08:05:29;9;2;2
42510;PMS7003;28141;51.120;17.114;2022-07-29T08:08:33;10;3;2
42510;PMS7003;28141;51.120;17.114;2022-07-29T08:11:37;10;3;2
42510;PMS7003;28141;51.120;17.114;2022-07-29T08:14:40;10;4;3
42510;PMS7003;28141;51.120;17.114;2022-07-29T08:17:43;11;4;2
42510;PMS7003;28141;51.120;17.114;2022-07-29T08:20:48;10;2;2
42510;PMS7003;28141;51.120;17.114;2022-07-29T08:23:51;11;3;2
42510;PMS7003;28141;51.120;17.114;2022-07-29T08:26:55;9;2;1
42510;PMS7003;28141;51.120;17.114;2022-07-29T08:29:59;10;3;2
42510;PMS7003;28141;51.120;17.114;2022-07-29T08:33:02;9;2;2
42510;PMS7003;28141;51.120;17.114;2022-07-29T08:36:06;10;2;2
42510;PMS7003;28141;51.120;17.114;2022-07-29T08:39:10;10;3;2
42510;PMS7003;28141;51.120;17.114;2022-07-29T08:42:39;10;3;2
42510;PMS7003;28141;51.120;17.114;2022-07-29T08:45:44;10;3;2
42510;PMS7003;28141;51.120;17.114;2022-07-29T08:48:49;9;3;2
42510;PMS7003;28141;51.120;17.114;2022-07-29T08:51:53;11;4;2
42510;PMS7003;28141;51.120;17.114;2022-07-29T08:54:58;10;3;1
42510;PMS7003;28141;51.120;17.114;2022-07-29T08:58:02;10;3;1
42510;PMS7003;28141;51.120;17.114;2022-07-29T09:01:08;11;3;1
42510;PMS7003;28141;51.120;17.114;2022-07-29T09:04:13;10;3;2
42510;PMS7003;28141;51.120;17.114;2022-07-29T09:07:19;9;3;2
42510;PMS7003;28141;51.120;17.114;2022-07-29T09:10:22;11;3;2
42510;PMS7003;28141;51.120;17.114;2022-07-29T09:13:54;10;2;2
42510;PMS7003;28141;51.120;17.114;2022-07-29T09:16:58;12;3;2
42510;PMS7003;28141;51.120;17.114;2022-07-29T09:20:08;10;3;3
42510;PMS7003;28141;51.120;17.114;2022-07-29T09:23:13;10;3;2
42510;PMS7003;28141;51.120;17.114;2022-07-29T09:26:17;9;2;1
42510;PMS7003;28141;51.120;17.114;2022-07-29T09:29:22;10;3;2
42510;PMS7003;28141;51.120;17.114;2022-07-29T09:32:27;10;3;2
42510;PMS7003;28141;51.120;17.114;2022-07-29T09:35:32;10;3;1
42510;PMS7003;28141;51.120;17.114;2022-07-29T09:38:35;10;3;3
42510;PMS7003;28141;51.120;17.114;2022-07-29T09:42:05;9;3;2
42510;PMS7003;28141;51.120;17.114;2022-07-29T09:45:10;8;2;1
42510;PMS7003;28141;51.120;17.114;2022-07-29T09:48:23;8;2;2
42510;PMS7003;28141;51.120;17.114;2022-07-29T09:51:24;9;4;2
42510;PMS7003;28141;51.120;17.114;2022-07-29T09:54:28;10;3;2
42510;PMS7003;28141;51.120;17.114;2022-07-29T09:57:39;10;4;2
42510;PMS7003;28141;51.120;17.114;2022-07-29T10:00:43;9;3;2
42510;PMS7003;28141;51.120;17.114;2022-07-29T10:04:12;9;3;2
42510;PMS7003;28141;51.120;17.114;2022-07-29T10:07:16;9;3;3
42510;PMS7003;28141;51.120;17.114;2022-07-29T10:10:24;8;2;1
42510;PMS7003;28141;51.120;17.114;2022-07-29T10:13:32;9;3;2
42510;PMS7003;28141;51.120;17.114;2022-07-29T10:16:38;9;3;2
42510;PMS7003;28141;51.120;17.114;2022-07-29T10:19:42;9;3;2
42510;PMS7003;28141;51.120;17.114;2022-07-29T10:22:46;11;4;3
42510;PMS7003;28141;51.120;17.114;2022-07-29T10:25:51;10;3;2
42510;PMS7003;28141;51.120;17.114;2022-07-29T10:29:19;9;3;2
42510;PMS7003;28141;51.120;17.114;2022-07-29T10:32:29;10;4;3
42510;PMS7003;28141;51.120;17.114;2022-07-29T10:35:43;10;4;3
42510;PMS7003;28141;51.120;17.114;2022-07-29T10:38:55;10;3;2
42510;PMS7003;28141;51.120;17.114;2022-07-29T10:45:46;10;4;2
42510;PMS7003;28141;51.120;17.114;2022-07-29T10:52:09;10;4;3
42510;PMS7003;28141;51.120;17.114;2022-07-29T10:58:28;9;4;3
42510;PMS7003;28141;51.120;17.114;2022-07-29T11:01:32;11;3;2
42510;PMS7003;28141;51.120;17.114;2022-07-29T11:05:01;9;3;2
42510;PMS7003;28141;51.120;17.114;2022-07-29T11:21:34;11;5;3
42510;PMS7003;28141;51.120;17.114;2022-07-29T11:24:39;10;4;3
42510;PMS7003;28141;51.120;17.114;2022-07-29T11:27:42;10;4;3
42510;PMS7003;28141;51.120;17.114;2022-07-29T11:30:49;10;4;3
42510;PMS7003;28141;51.120;17.114;2022-07-29T11:33:54;11;4;3
42510;PMS7003;28141;51.120;17.114;2022-07-29T11:40:40;11;4;2
42510;PMS7003;28141;51.120;17.114;2022-07-29T11:47:05;11;5;4
42510;PMS7003;28141;51.120;17.114;2022-07-29T11:50:12;12;5;4
42510;PMS7003;28141;51.120;17.114;2022-07-29T11:53:18;12;5;4
42510;PMS7003;28141;51.120;17.114;2022-07-29T11:56:22;11;5;4
42510;PMS7003;28141;51.120;17.114;2022-07-29T11:59:53;10;4;3
42510;PMS7003;28141;51.120;17.114;2022-07-29T12:03:01;12;5;4
42510;PMS7003;28141;51.120;17.114;2022-07-29T12:09:17;11;5;3
42510;PMS7003;28141;51.120;17.114;2022-07-29T12:12:21;10;4;3
42510;PMS7003;28141;51.120;17.114;2022-07-29T12:15:25;10;4;3
42510;PMS7003;28141;51.120;17.114;2022-07-29T12:18:29;12;5;3
42510;PMS7003;28141;51.120;17.114;2022-07-29T12:21:57;10;4;3
42510;PMS7003;28141;51.120;17.114;2022-07-29T12:28:19;11;5;3
42510;PMS7003;28141;51.120;17.114;2022-07-29T12:31:24;11;5;3
42510;PMS7003;28141;51.120;17.114;2022-07-29T12:34:27;12;5;4
42510;PMS7003;28141;51.120;17.114;2022-07-29T12:37:35;11;4;3
42510;PMS7003;28141;51.120;17.114;2022-07-29T12:40:40;13;6;4
42510;PMS7003;28141;51.120;17.114;2022-07-29T12:44:10;11;5;4
42510;PMS7003;28141;51.120;17.114;2022-07-29T12:47:14;11;6;3
42510;PMS7003;28141;51.120;17.114;2022-07-29T12:50:18;11;5;3
42510;PMS7003;28141;51.120;17.114;2022-07-29T12:53:23;11;5;3
42510;PMS7003;28141;51.120;17.114;2022-07-29T12:56:26;11;5;4
42510;PMS7003;28141;51.120;17.114;2022-07-29T12:59:30;11;4;3
42510;PMS7003;28141;51.120;17.114;2022-07-29T13:02:33;11;5;4
42510;PMS7003;28141;51.120;17.114;2022-07-29T13:05:41;11;5;4
42510;PMS7003;28141;51.120;17.114;2022-07-29T13:09:12;10;4;3
42510;PMS7003;28141;51.120;17.114;2022-07-29T13:12:20;12;5;3
42510;PMS7003;28141;51.120;17.114;2022-07-29T13:15:23;13;6;3
42510;PMS7003;28141;51.120;17.114;2022-07-29T13:18:30;12;5;3
42510;PMS7003;28141;51.120;17.114;2022-07-29T13:21:36;12;6;4
42510;PMS7003;28141;51.120;17.114;2022-07-29T13:27:55;11;5;3
42510;PMS7003;28141;51.120;17.114;2022-07-29T13:30:59;13;5;4
42510;PMS7003;28141;51.120;17.114;2022-07-29T13:34:03;12;5;3
42510;PMS7003;28141;51.120;17.114;2022-07-29T13:37:07;12;5;4
42510;PMS7003;28141;51.120;17.114;2022-07-29T13:40:11;13;6;4
42510;PMS7003;28141;51.120;17.114;2022-07-29T13:43:45;11;5;4
42510;PMS7003;28141;51.120;17.114;2022-07-29T13:46:48;13;5;4
42510;PMS7003;28141;51.120;17.114;2022-07-29T13:49:53;13;6;4
42510;PMS7003;28141;51.120;17.114;2022-07-29T13:52:56;12;4;3
42510;PMS7003;28141;51.120;17.114;2022-07-29T13:56:00;12;5;4
42510;PMS7003;28141;51.120;17.114;2022-07-29T13:59:03;13;6;5
42510;PMS7003;28141;51.120;17.114;2022-07-29T14:02:07;14;5;4
42510;PMS7003;28141;51.120;17.114;2022-07-29T14:05:11;12;5;4
42510;PMS7003;28141;51.120;17.114;2022-07-29T14:08:15;13;6;4
42510;PMS7003;28141;51.120;17.114;2022-07-29T14:11:18;12;5;4
42510;PMS7003;28141;51.120;17.114;2022-07-29T14:14:22;14;6;4
42510;PMS7003;28141;51.120;17.114;2022-07-29T14:17:25;12;5;4
42510;PMS7003;28141;51.120;17.114;2022-07-29T14:20:29;12;6;4
42510;PMS7003;28141;51.120;17.114;2022-07-29T14:23:33;12;5;4
42510;PMS7003;28141;51.120;17.114;2022-07-29T14:26:38;11;4;3
42510;PMS7003;28141;51.120;17.114;2022-07-29T14:29:41;11;5;4
42510;PMS7003;28141;51.120;17.114;2022-07-29T14:32:44;12;5;4
42510;PMS7003;28141;51.120;17.114;2022-07-29T14:35:48;11;5;4
42510;PMS7003;28141;51.120;17.114;2022-07-29T14:38:51;12;6;4
42510;PMS7003;28141;51.120;17.114;2022-07-29T14:42:19;12;5;3
42510;PMS7003;28141;51.120;17.114;2022-07-29T14:45:23;12;6;3
42510;PMS7003;28141;51.120;17.114;2022-07-29T14:48:26;11;5;4
42510;PMS7003;28141;51.120;17.114;2022-07-29T14:51:30;12;5;3
42510;PMS7003;28141;51.120;17.114;2022-07-29T14:54:34;11;4;4
42510;PMS7003;28141;51.120;17.114;2022-07-29T14:57:37;11;5;3
42510;PMS7003;28141;51.120;17.114;2022-07-29T15:00:41;11;5;4
42510;PMS7003;28141;51.120;17.114;2022-07-29T15:03:44;12;6;4
42510;PMS7003;28141;51.120;17.114;2022-07-29T15:06:48;12;5;4
42510;PMS7003;28141;51.120;17.114;2022-07-29T15:09:52;11;4;3
42510;PMS7003;28141;51.120;17.114;2022-07-29T15:12:56;13;6;5
42510;PMS7003;28141;51.120;17.114;2022-07-29T15:15:59;12;6;4
42510;PMS7003;28141;51.120;17.114;2022-07-29T15:19:03;11;5;4
42510;PMS7003;28141;51.120;17.114;2022-07-29T15:22:07;12;5;4
42510;PMS7003;28141;51.120;17.114;2022-07-29T15:25:10;14;7;4
42510;PMS7003;28141;51.120;17.114;2022-07-29T15:28:14;13;5;4
42510;PMS7003;28141;51.120;17.114;2022-07-29T15:31:42;12;6;4
42510;PMS7003;28141;51.120;17.114;2022-07-29T15:34:46;10;4;3
42510;PMS7003;28141;51.120;17.114;2022-07-29T15:37:50;11;5;4
42510;PMS7003;28141;51.120;17.114;2022-07-29T15:40:53;11;5;4
42510;PMS7003;28141;51.120;17.114;2022-07-29T15:43:56;11;5;4
42510;PMS7003;28141;51.120;17.114;2022-07-29T15:47:00;13;6;4
42510;PMS7003;28141;51.120;17.114;2022-07-29T15:50:10;11;5;3
42510;PMS7003;28141;51.120;17.114;2022-07-29T15:53:18;12;5;4
42510;PMS7003;28141;51.120;17.114;2022-07-29T15:56:46;12;6;5
42510;PMS7003;28141;51.120;17.114;2022-07-29T15:59:49;12;5;4
42510;PMS7003;28141;51.120;17.114;2022-07-29T16:02:53;12;7;4
42510;PMS7003;28141;51.120;17.114;2022-07-29T16:05:57;11;5;4
42510;PMS7003;28141;51.120;17.114;2022-07-29T16:09:00;12;6;3
42510;PMS7003;28141;51.120;17.114;2022-07-29T16:12:04;10;5;3
42510;PMS7003;28141;51.120;17.114;2022-07-29T16:15:09;12;6;4
42510;PMS7003;28141;51.120;17.114;2022-07-29T16:18:12;12;5;4
42510;PMS7003;28141;51.120;17.114;2022-07-29T16:21:16;11;4;4
42510;PMS7003;28141;51.120;17.114;2022-07-29T16:24:44;12;5;4
42510;PMS7003;28141;51.120;17.114;2022-07-29T16:27:48;12;5;4
42510;PMS7003;28141;51.120;17.114;2022-07-29T16:30:52;11;5;3
42510;PMS7003;28141;51.120;17.114;2022-07-29T16:33:55;12;6;4
42510;PMS7003;28141;51.120;17.114;2022-07-29T16:36:58;12;6;4
42510;PMS7003;28141;51.120;17.114;2022-07-29T16:40:02;13;6;4
42510;PMS7003;28141;51.120;17.114;2022-07-29T16:43:08;11;5;3
42510;PMS7003;28141;51.120;17.114;2022-07-29T16:46:12;12;5;4
42510;PMS7003;28141;51.120;17.114;2022-07-29T16:49:16;12;6;4
42510;PMS7003;28141;51.120;17.114;2022-07-29T16:52:19;10;5;4
42510;PMS7003;28141;51.120;17.114;2022-07-29T16:55:23;12;5;4
42510;PMS7003;28141;51.120;17.114;2022-07-29T16:58:26;12;6;4
42510;PMS7003;28141;51.120;17.114;2022-07-29T17:01:30;11;4;4
42510;PMS7003;28141;51.120;17.114;2022-07-29T17:04:34;13;5;4
42510;PMS7003;28141;51.120;17.114;2022-07-29T17:08:04;11;4;3
42510;PMS7003;28141;51.120;17.114;2022-07-29T17:11:07;13;5;4
42510;PMS7003;28141;51.120;17.114;2022-07-29T17:14:11;11;5;4
42510;PMS7003;28141;51.120;17.114;2022-07-29T17:17:14;12;4;3
42510;PMS7003;28141;51.120;17.114;2022-07-29T17:20:18;12;5;4
42510;PMS7003;28141;51.120;17.114;2022-07-29T17:23:22;10;4;2
42510;PMS7003;28141;51.120;17.114;2022-07-29T17:26:25;12;5;4
42510;PMS7003;28141;51.120;17.114;2022-07-29T17:29:31;12;5;3
42510;PMS7003;28141;51.120;17.114;2022-07-29T17:32:36;12;5;4
42510;PMS7003;28141;51.120;17.114;2022-07-29T17:35:41;11;4;4
42510;PMS7003;28141;51.120;17.114;2022-07-29T17:39:21;12;6;4
42510;PMS7003;28141;51.120;17.114;2022-07-29T17:42:25;11;4;3
42510;PMS7003;28141;51.120;17.114;2022-07-29T17:45:28;10;4;3
42510;PMS7003;28141;51.120;17.114;2022-07-29T17:48:31;11;5;3
42510;PMS7003;28141;51.120;17.114;2022-07-29T17:51:36;12;6;4
42510;PMS7003;28141;51.120;17.114;2022-07-29T17:54:42;10;4;3
42510;PMS7003;28141;51.120;17.114;2022-07-29T17:57:46;10;4;3
42510;PMS7003;28141;51.120;17.114;2022-07-29T18:00:49;11;5;3
42510;PMS7003;28141;51.120;17.114;2022-07-29T18:04:21;11;5;4
42510;PMS7003;28141;51.120;17.114;2022-07-29T18:07:25;10;4;3
42510;PMS7003;28141;51.120;17.114;2022-07-29T18:10:28;11;5;3
42510;PMS7003;28141;51.120;17.114;2022-07-29T18:13:32;10;4;2
42510;PMS7003;28141;51.120;17.114;2022-07-29T18:16:35;12;6;3
42510;PMS7003;28141;51.120;17.114;2022-07-29T18:19:39;11;5;3
42510;PMS7003;28141;51.120;17.114;2022-07-29T18:22:43;10;4;3
42510;PMS7003;28141;51.120;17.114;2022-07-29T18:26:52;11;5;3
42510;PMS7003;28141;51.120;17.114;2022-07-29T18:29:55;13;4;3
42510;PMS7003;28141;51.120;17.114;2022-07-29T18:32:59;11;4;3
42510;PMS7003;28141;51.120;17.114;2022-07-29T18:36:02;11;5;3
42510;PMS7003;28141;51.120;17.114;2022-07-29T18:39:06;11;4;3
42510;PMS7003;28141;51.120;17.114;2022-07-29T18:42:10;11;4;3
42510;PMS7003;28141;51.120;17.114;2022-07-29T18:45:13;11;5;3
42510;PMS7003;28141;51.120;17.114;2022-07-29T18:48:16;10;3;3
42510;PMS7003;28141;51.120;17.114;2022-07-29T18:51:20;11;4;3
42510;PMS7003;28141;51.120;17.114;2022-07-29T18:54:23;11;5;4
42510;PMS7003;28141;51.120;17.114;2022-07-29T18:57:27;11;4;3
42510;PMS7003;28141;51.120;17.114;2022-07-29T19:00:55;13;5;4
42510;PMS7003;28141;51.120;17.114;2022-07-29T19:03:59;9;3;2
42510;PMS7003;28141;51.120;17.114;2022-07-29T19:07:03;10;4;3
42510;PMS7003;28141;51.120;17.114;2022-07-29T19:10:07;10;4;3
42510;PMS7003;28141;51.120;17.114;2022-07-29T19:13:11;10;4;3
42510;PMS7003;28141;51.120;17.114;2022-07-29T19:16:15;11;5;3
42510;PMS7003;28141;51.120;17.114;2022-07-29T19:19:19;10;4;3
42510;PMS7003;28141;51.120;17.114;2022-07-29T19:22:22;9;4;3
42510;PMS7003;28141;51.120;17.114;2022-07-29T19:25:26;10;4;3
42510;PMS7003;28141;51.120;17.114;2022-07-29T19:28:54;10;4;3
42510;PMS7003;28141;51.120;17.114;2022-07-29T19:31:57;11;4;4
42510;PMS7003;28141;51.120;17.114;2022-07-29T19:35:04;11;5;4
42510;PMS7003;28141;51.120;17.114;2022-07-29T19:38:21;11;4;3
42510;PMS7003;28141;51.120;17.114;2022-07-29T19:41:25;11;3;2
42510;PMS7003;28141;51.120;17.114;2022-07-29T19:44:30;11;4;4
42510;PMS7003;28141;51.120;17.114;2022-07-29T19:47:33;13;6;4
42510;PMS7003;28141;51.120;17.114;2022-07-29T19:50:37;10;4;3
42510;PMS7003;28141;51.120;17.114;2022-07-29T19:54:08;12;5;4
42510;PMS7003;28141;51.120;17.114;2022-07-29T19:57:11;11;4;3
42510;PMS7003;28141;51.120;17.114;2022-07-29T20:00:15;11;5;3
42510;PMS7003;28141;51.120;17.114;2022-07-29T20:03:19;12;5;4
42510;PMS7003;28141;51.120;17.114;2022-07-29T20:06:23;11;4;3
42510;PMS7003;28141;51.120;17.114;2022-07-29T20:09:26;11;4;3
42510;PMS7003;28141;51.120;17.114;2022-07-29T20:12:30;11;4;3
42510;PMS7003;28141;51.120;17.114;2022-07-29T20:15:34;10;4;3
42510;PMS7003;28141;51.120;17.114;2022-07-29T20:18:38;12;4;3
42510;PMS7003;28141;51.120;17.114;2022-07-29T20:21:41;12;5;4
42510;PMS7003;28141;51.120;17.114;2022-07-29T20:24:45;11;4;3
42510;PMS7003;28141;51.120;17.114;2022-07-29T20:27:48;11;4;3
42510;PMS7003;28141;51.120;17.114;2022-07-29T20:31:20;11;4;3
42510;PMS7003;28141;51.120;17.114;2022-07-29T20:34:23;10;3;3
42510;PMS7003;28141;51.120;17.114;2022-07-29T20:37:27;12;4;3
42510;PMS7003;28141;51.120;17.114;2022-07-29T20:40:30;12;5;3
42510;PMS7003;28141;51.120;17.114;2022-07-29T20:43:34;10;3;2
42510;PMS7003;28141;51.120;17.114;2022-07-29T20:46:37;11;4;3
42510;PMS7003;28141;51.120;17.114;2022-07-29T20:49:40;10;4;3
42510;PMS7003;28141;51.120;17.114;2022-07-29T20:52:44;10;4;3
42510;PMS7003;28141;51.120;17.114;2022-07-29T20:55:47;11;3;2
42510;PMS7003;28141;51.120;17.114;2022-07-29T20:58:51;10;3;3
42510;PMS7003;28141;51.120;17.114;2022-07-29T21:01:54;11;4;3
42510;PMS7003;28141;51.120;17.114;2022-07-29T21:05:26;12;4;3
42510;PMS7003;28141;51.120;17.114;2022-07-29T21:08:29;12;5;3
42510;PMS7003;28141;51.120;17.114;2022-07-29T21:11:33;10;4;3
42510;PMS7003;28141;51.120;17.114;2022-07-29T21:14:37;11;4;3
42510;PMS7003;28141;51.120;17.114;2022-07-29T21:17:49;11;4;3
42510;PMS7003;28141;51.120;17.114;2022-07-29T21:20:59;11;4;3
42510;PMS7003;28141;51.120;17.114;2022-07-29T21:24:03;10;4;3
42510;PMS7003;28141;51.120;17.114;2022-07-29T21:27:08;10;3;2
42510;PMS7003;28141;51.120;17.114;2022-07-29T21:30:50;10;3;3